createdAt,value
2019-02-12T00:04:49.268Z,10.50
2019-02-12T00:09:53.135Z,9.37
2019-02-12T00:14:58.302Z,10.93
2019-02-12T00:20:02.160Z,11.67
2019-02-12T00:25:06.175Z,8.13
2019-02-12T00:30:10.222Z,12.90
2019-02-12T00:35:14.134Z,13.90
2019-02-12T00:40:18.089Z,9.30
2019-02-12T00:45:22.017Z,11.50
2019-02-12T00:50:26.011Z,12.20
2019-02-12T00:55:29.907Z,13.70
2019-02-12T01:00:33.775Z,9.83
2019-02-12T01:05:37.673Z,10.73
2019-02-12T01:10:41.544Z,6.87
2019-02-12T01:15:45.431Z,7.87
2019-02-12T01:20:49.294Z,16.77
2019-02-12T01:25:53.231Z,15.33
2019-02-12T01:30:57.121Z,11.03
2019-02-12T01:36:01.019Z,14.30
2019-02-12T01:41:04.973Z,17.23
2019-02-12T01:46:08.851Z,19.90
2019-02-12T01:51:12.769Z,10.40
2019-02-12T01:56:16.628Z,11.60
2019-02-12T02:01:20.484Z,14.53
2019-02-12T02:06:24.355Z,28.63
2019-02-12T02:11:28.331Z,17.20
2019-02-12T02:16:32.443Z,12.20
2019-02-12T02:21:43.866Z,11.47
2019-02-12T02:26:42.082Z,14.40
2019-02-12T02:31:45.954Z,16.73
2019-02-12T02:36:49.899Z,12.73
2019-02-12T02:41:53.874Z,12.40
2019-02-12T02:46:57.847Z,16.57
2019-02-12T02:52:01.723Z,14.60
2019-02-12T02:57:05.691Z,9.23
2019-02-12T03:02:09.727Z,14.87
2019-02-12T03:07:13.604Z,13.23
2019-02-12T03:12:18.182Z,10.37
2019-02-12T03:17:22.218Z,21.70
2019-02-12T03:22:26.163Z,9.00
2019-02-12T03:27:30.040Z,15.73
2019-02-12T03:32:33.912Z,12.37
2019-02-12T03:37:38.099Z,14.07
2019-02-12T03:42:42.060Z,19.90
2019-02-12T03:47:45.952Z,11.10
2019-02-12T03:52:49.977Z,13.63
2019-02-12T03:57:53.943Z,10.90
2019-02-12T04:03:02.760Z,14.20
2019-02-12T04:08:07.055Z,18.90
2019-02-12T04:13:10.948Z,29.80
2019-02-12T04:18:14.891Z,16.80
2019-02-12T04:23:18.925Z,10.30
2019-02-12T04:28:23.252Z,8.80
2019-02-12T04:33:27.144Z,15.00
2019-02-12T04:38:31.047Z,20.63
2019-02-12T04:43:34.935Z,15.90
2019-02-12T04:48:38.839Z,15.80
2019-02-12T04:53:42.955Z,17.77
2019-02-12T04:58:46.838Z,11.40
2019-02-12T05:03:50.726Z,15.00
2019-02-12T05:09:25.903Z,19.60
2019-02-12T05:14:29.784Z,11.00
2019-02-12T05:19:33.732Z,24.37
2019-02-12T05:24:37.666Z,14.80
2019-02-12T05:29:41.534Z,13.33
2019-02-12T05:34:45.407Z,17.40
2019-02-12T05:39:49.284Z,18.30
2019-02-12T05:44:53.151Z,28.67
2019-02-12T05:49:57.069Z,19.53
2019-02-12T05:55:01.020Z,17.27
2019-02-12T06:00:07.029Z,23.43
2019-02-12T06:05:11.434Z,14.53
2019-02-12T06:10:15.374Z,24.70
2019-02-12T06:15:19.451Z,20.97
2019-02-12T06:20:23.515Z,14.73
2019-02-12T06:25:27.401Z,32.20
2019-02-12T06:30:31.322Z,21.73
2019-02-12T06:35:35.194Z,29.73
2019-02-12T06:40:39.060Z,21.10
2019-02-12T06:45:42.939Z,16.87
2019-02-12T06:50:46.837Z,17.60
2019-02-12T06:55:50.719Z,15.87
2019-02-12T07:00:54.607Z,24.10
2019-02-12T07:06:25.727Z,25.43
2019-02-12T07:12:13.687Z,18.40
2019-02-12T07:17:35.426Z,19.17
2019-02-12T07:22:56.051Z,29.83
2019-02-12T07:28:50.102Z,16.27
2019-02-12T07:34:50.136Z,20.77
2019-02-12T07:39:58.916Z,21.43
2019-02-12T07:45:22.520Z,27.40
2019-02-12T07:51:19.960Z,21.50
2019-02-12T07:57:07.328Z,32.40
2019-02-12T08:02:48.565Z,30.50
2019-02-12T08:08:34.024Z,18.87
2019-02-12T08:14:06.523Z,21.70
2019-02-12T08:19:49.026Z,23.63
2019-02-12T08:25:09.363Z,30.43
2019-02-12T08:30:27.113Z,26.00
2019-02-12T08:35:58.152Z,18.40
2019-02-12T08:41:52.975Z,18.50
2019-02-12T08:47:15.940Z,21.00
2019-02-12T08:53:01.739Z,18.50
2019-02-12T08:58:23.179Z,18.00
2019-02-12T09:03:57.998Z,23.97
2019-02-12T09:09:43.426Z,19.50
2019-02-12T09:15:16.807Z,25.70
2019-02-12T09:21:05.085Z,20.07
2019-02-12T09:26:18.439Z,18.93
2019-02-12T09:31:59.455Z,29.87
2019-02-12T09:37:24.760Z,15.87
2019-02-12T09:42:54.795Z,25.77
2019-02-12T09:48:06.800Z,22.73
2019-02-12T09:53:31.835Z,16.03
2019-02-12T09:59:03.684Z,27.60
2019-02-12T10:04:39.880Z,17.67
2019-02-12T10:10:08.479Z,22.50
2019-02-12T10:15:56.374Z,24.90
2019-02-12T10:21:34.944Z,32.07
2019-02-12T10:26:40.347Z,21.17
2019-02-12T10:31:43.662Z,24.67
2019-02-12T10:36:47.544Z,26.70
2019-02-12T10:41:51.571Z,22.10
2019-02-12T10:46:55.555Z,17.77
2019-02-12T10:51:59.503Z,19.67
2019-02-12T10:57:03.740Z,22.67
2019-02-12T11:02:07.695Z,25.37
2019-02-12T11:07:11.649Z,21.67
2019-02-12T11:12:15.535Z,23.50
2019-02-12T11:17:19.411Z,27.53
2019-02-12T11:22:24.252Z,22.33
2019-02-12T11:27:28.128Z,23.67
2019-02-12T11:32:32.003Z,19.80
2019-02-12T11:37:36.127Z,22.57
2019-02-12T11:42:40.170Z,22.03
2019-02-12T11:47:44.243Z,28.33
2019-02-12T11:52:48.199Z,19.07
2019-02-12T11:57:52.093Z,21.83
2019-02-12T12:02:56.226Z,14.90
2019-02-12T12:08:00.138Z,22.80
2019-02-12T12:13:04.175Z,27.57
2019-02-12T12:18:08.070Z,22.50
2019-02-12T12:23:12.048Z,21.17
2019-02-12T12:28:15.975Z,19.60
2019-02-12T12:33:22.150Z,26.10
2019-02-12T12:38:26.306Z,18.97
2019-02-12T12:43:30.178Z,21.67
2019-02-12T12:48:34.238Z,31.10
2019-02-12T12:53:38.219Z,18.40
2019-02-12T12:58:42.103Z,19.97
2019-02-12T13:03:46.044Z,29.10
2019-02-12T13:08:51.139Z,35.37
2019-02-12T13:13:55.143Z,33.83
2019-02-12T13:18:59.145Z,26.70
2019-02-12T13:24:03.132Z,29.53
2019-02-12T13:29:07.019Z,26.30
2019-02-12T13:34:10.943Z,25.13
2019-02-12T13:39:15.106Z,21.90
2019-02-12T13:44:19.152Z,30.47
2019-02-12T13:49:23.071Z,25.30
2019-02-12T13:54:27.042Z,33.70
2019-02-12T13:59:31.032Z,28.20
2019-02-12T14:04:35.007Z,27.23
2019-02-12T14:09:38.894Z,22.80
2019-02-12T14:14:43.447Z,23.63
2019-02-12T14:19:48.376Z,19.17
2019-02-12T14:24:52.338Z,20.90
2019-02-12T14:29:56.407Z,32.33
2019-02-12T14:35:00.349Z,32.20
2019-02-12T14:40:04.616Z,28.83
2019-02-12T14:45:11.823Z,27.83
2019-02-12T14:50:15.970Z,25.87
2019-02-12T14:55:19.967Z,20.23
2019-02-12T15:00:24.117Z,27.67
2019-02-12T15:05:28.528Z,21.57
2019-02-12T15:10:32.525Z,20.33
2019-02-12T15:15:36.479Z,27.13
2019-02-12T15:20:40.448Z,25.10
2019-02-12T15:25:44.417Z,21.60
2019-02-12T15:30:48.386Z,29.00
2019-02-12T15:35:52.298Z,31.40
2019-02-12T15:40:56.559Z,35.20
2019-02-12T15:46:00.535Z,22.33
2019-02-12T15:51:04.591Z,39.27
2019-02-12T15:56:08.726Z,423.27
2019-02-12T16:01:12.745Z,1176.77
2019-02-12T16:06:19.293Z,677.57
2019-02-12T16:11:25.534Z,483.17
2019-02-12T16:16:30.157Z,349.97
2019-02-12T16:21:35.095Z,360.40
2019-02-12T16:26:38.991Z,307.27
2019-02-12T16:31:43.375Z,302.60
2019-02-12T16:36:47.382Z,284.83
2019-02-12T16:41:51.335Z,190.70
2019-02-12T16:46:55.434Z,164.27
2019-02-12T16:51:59.520Z,156.07
2019-02-12T16:57:03.594Z,158.17
2019-02-12T17:02:07.556Z,157.50
2019-02-12T17:07:11.440Z,124.87
2019-02-12T17:12:15.391Z,103.90
2019-02-12T17:17:19.271Z,84.83
2019-02-12T17:22:23.158Z,83.97
2019-02-12T17:27:27.060Z,95.80
2019-02-12T17:32:31.198Z,100.60
2019-02-12T17:37:35.182Z,61.33
2019-02-12T17:42:39.218Z,77.90
2019-02-12T17:47:43.351Z,75.63
2019-02-12T17:52:48.093Z,68.63
2019-02-12T17:57:52.062Z,70.30
2019-02-12T18:02:55.997Z,64.33
2019-02-12T18:07:59.959Z,55.50
2019-02-12T18:13:04.016Z,45.93
2019-02-12T18:18:07.920Z,40.87
2019-02-12T18:23:11.821Z,48.90
2019-02-12T18:28:15.743Z,50.10
2019-02-12T18:33:19.991Z,37.43
2019-02-12T18:38:23.891Z,39.27
2019-02-12T18:43:27.788Z,37.17
2019-02-12T18:48:31.791Z,45.70
2019-02-12T18:53:35.779Z,40.00
2019-02-12T18:58:39.700Z,32.67
2019-02-12T19:03:46.677Z,34.93
2019-02-12T19:08:50.763Z,37.70
2019-02-12T19:13:55.795Z,39.57
2019-02-12T19:18:59.762Z,37.53
2019-02-12T19:24:03.712Z,24.57
2019-02-12T19:29:07.594Z,31.53
2019-02-12T19:34:11.464Z,29.13
2019-02-12T19:39:15.452Z,46.23
2019-02-12T19:44:19.307Z,42.83
2019-02-12T19:49:23.224Z,40.43
2019-02-12T19:54:27.112Z,43.47
2019-02-12T19:59:30.967Z,42.63
2019-02-12T20:04:34.851Z,41.63
2019-02-12T20:09:38.974Z,41.97
2019-02-12T20:14:42.843Z,41.30
2019-02-12T20:19:47.383Z,40.67
2019-02-12T20:24:51.312Z,47.07
2019-02-12T20:29:56.703Z,38.37
2019-02-12T20:35:08.591Z,50.87
2019-02-12T20:40:12.907Z,47.50
2019-02-12T20:45:16.946Z,40.13
2019-02-12T20:50:20.821Z,45.73
2019-02-12T20:55:25.801Z,56.10
2019-02-12T21:00:29.734Z,46.53
2019-02-12T21:05:33.659Z,46.50
2019-02-12T21:10:37.531Z,45.87
2019-02-12T21:15:41.986Z,48.90
2019-02-12T21:20:45.855Z,42.73
2019-02-12T21:25:49.736Z,46.20
2019-02-12T21:30:59.215Z,44.10
2019-02-12T21:36:03.362Z,48.03
2019-02-12T21:41:08.783Z,43.47
2019-02-12T21:46:13.689Z,48.97
2019-02-12T21:51:17.632Z,45.17
2019-02-12T21:56:21.503Z,46.30
2019-02-12T22:01:25.372Z,47.67
2019-02-12T22:06:29.234Z,43.13
2019-02-12T22:11:33.120Z,47.37
2019-02-12T22:16:36.999Z,42.17
2019-02-12T22:21:40.943Z,48.47
2019-02-12T22:26:44.838Z,49.37
2019-02-12T22:31:48.717Z,42.10
2019-02-12T22:36:52.663Z,46.23
2019-02-12T22:41:56.542Z,43.13
2019-02-12T22:47:00.412Z,43.83
2019-02-12T22:52:04.356Z,47.67
2019-02-12T22:57:08.218Z,46.20
2019-02-12T23:02:12.408Z,40.97
2019-02-12T23:07:16.432Z,46.30
2019-02-12T23:12:20.451Z,50.50
2019-02-12T23:17:24.404Z,53.47
2019-02-12T23:22:28.350Z,56.77
2019-02-12T23:27:32.218Z,43.07
2019-02-12T23:32:36.086Z,52.03
2019-02-12T23:37:40.031Z,48.80
2019-02-12T23:42:43.903Z,51.40
2019-02-12T23:47:47.831Z,45.40
2019-02-12T23:52:51.695Z,50.20
2019-02-12T23:57:55.591Z,53.67
